Time;durP1;ratioP1;P1;durP2;ratioP2;P2;SDS_P1;SDS_P2;PMS_P1;PMS_P2;Temp;Humidity;BMP_temperature;BMP_pressure;BME280_temperature;BME280_humidity;BME280_pressure;Samples;Min_cycle;Max_cycle;Signal;HPM_P1;HPM_P2
2022/07/25 00:00:08;;;;;;;10.63;8.45;;;;;;;27.61;52.11;95020.78;5001051;28;20054;-56
2022/07/25 00:02:33;;;;;;;10.43;8.52;;;;;;;27.62;52.06;95018.78;5001931;28;20033;-52
2022/07/25 00:04:59;;;;;;;13.45;9.65;;;;;;;27.59;51.96;95022.59;4981542;28;20026;-55
2022/07/25 00:07:25;;;;;;;10.18;8.90;;;;;;;27.54;52.28;95020.72;4995159;28;20033;-53
2022/07/25 00:09:51;;;;;;;11.98;9.75;;;;;;;27.52;53.02;95017.75;5002522;28;20475;-52
2022/07/25 00:12:16;;;;;;;10.77;8.65;;;;;;;27.46;52.69;95008.94;5001920;28;20092;-52
2022/07/25 00:14:42;;;;;;;10.40;8.95;;;;;;;27.44;53.36;95014.94;5002644;28;20034;-51
2022/07/25 00:17:07;;;;;;;10.55;9.23;;;;;;;27.46;53.30;95020.63;5001866;28;20026;-51
2022/07/25 00:19:33;;;;;;;11.32;8.98;;;;;;;27.45;53.09;95018.44;5001197;28;20026;-54
2022/07/25 00:21:58;;;;;;;10.45;8.68;;;;;;;27.43;53.29;95015.50;5000220;28;20037;-52
2022/07/25 00:24:24;;;;;;;10.68;9.05;;;;;;;27.39;52.96;95012.34;5002208;28;20501;-50
2022/07/25 00:26:49;;;;;;;10.68;8.73;;;;;;;27.40;52.90;95011.06;5001228;28;20026;-50
2022/07/25 00:29:14;;;;;;;10.73;9.07;;;;;;;27.40;53.11;95011.06;5002453;28;20524;-53
2022/07/25 00:31:40;;;;;;;10.48;9.07;;;;;;;27.38;53.77;95013.59;5000239;28;20033;-53
2022/07/25 00:34:05;;;;;;;10.45;9.35;;;;;;;27.36;54.16;94999.69;5002747;28;20065;-52
2022/07/25 00:36:31;;;;;;;9.30;8.13;;;;;;;27.35;54.38;94995.47;5001841;28;20524;-56
2022/07/25 00:38:56;;;;;;;10.65;9.30;;;;;;;27.34;53.92;94991.28;5001856;28;20092;-52
2022/07/25 00:41:22;;;;;;;10.85;9.13;;;;;;;27.31;54.66;94984.13;5001316;28;20366;-55
2022/07/25 00:43:47;;;;;;;10.73;8.70;;;;;;;27.26;54.33;94984.97;5001695;28;20034;-51
2022/07/25 00:46:13;;;;;;;10.15;8.95;;;;;;;27.25;54.33;94983.50;5001339;28;20018;-52
2022/07/25 00:48:39;;;;;;;11.07;9.05;;;;;;;27.27;54.26;94986.44;5002841;28;20030;-58
2022/07/25 00:51:06;;;;;;;10.15;8.90;;;;;;;27.26;54.29;94984.97;5001308;28;20030;-54
2022/07/25 00:53:31;;;;;;;11.40;9.20;;;;;;;27.24;54.45;94982.03;5001691;28;20046;-53
2022/07/25 00:55:57;;;;;;;11.70;9.13;;;;;;;27.25;54.71;94989.00;4983908;28;20026;-55
2022/07/25 00:58:22;;;;;;;10.18;8.90;;;;;;;27.23;54.97;94993.53;4998654;28;20108;-53
2022/07/25 01:00:48;;;;;;;10.57;9.40;;;;;;;27.23;54.89;94996.28;5013703;28;20029;-52
2022/07/25 01:03:13;;;;;;;11.57;9.23;;;;;;;27.19;54.42;94993.88;5020143;28;20040;-56
2022/07/25 01:05:39;;;;;;;11.27;8.90;;;;;;;27.20;54.75;94992.59;5021378;28;20037;-53
2022/07/25 01:08:05;;;;;;;10.25;8.95;;;;;;;27.19;54.85;94990.38;5019858;28;20049;-54
2022/07/25 01:10:31;;;;;;;12.60;9.40;;;;;;;27.17;54.72;94988.19;4987320;28;20064;-55
2022/07/25 01:12:56;;;;;;;9.95;8.65;;;;;;;27.18;54.47;94983.44;5021394;28;20152;-56
2022/07/25 01:15:22;;;;;;;11.00;8.85;;;;;;;27.17;54.74;94988.19;5021571;28;20500;-54
2022/07/25 01:17:48;;;;;;;11.45;9.20;;;;;;;27.17;54.29;94988.19;5019510;28;20683;-52
2022/07/25 01:20:14;;;;;;;11.70;8.82;;;;;;;27.11;54.11;94982.09;5021246;28;20059;-52
2022/07/25 01:22:40;;;;;;;10.32;9.10;;;;;;;27.14;54.12;94988.53;5003370;28;20029;-54
2022/07/25 01:25:05;;;;;;;10.95;8.60;;;;;;;27.11;53.93;94993.06;5021356;28;20029;-51
2022/07/25 01:27:31;;;;;;;13.13;9.48;;;;;;;27.12;53.84;94993.81;5020930;28;20021;-53
2022/07/25 01:29:56;;;;;;;9.35;8.23;;;;;;;27.09;53.86;94981.91;5021198;28;20576;-56
2022/07/25 01:32:22;;;;;;;9.68;8.65;;;;;;;27.06;54.21;94971.28;5020588;28;20029;-52
2022/07/25 01:34:47;;;;;;;10.35;8.50;;;;;;;27.10;54.33;94980.63;5021140;28;20673;-56
2022/07/25 01:37:13;;;;;;;10.73;8.65;;;;;;;27.11;54.49;94984.09;5020393;28;20033;-53
2022/07/25 01:39:38;;;;;;;10.05;8.27;;;;;;;27.10;54.26;94983.38;5005225;28;20654;-51
2022/07/25 01:42:04;;;;;;;9.90;8.38;;;;;;;27.09;54.08;94987.38;5024212;28;20369;-52
2022/07/25 01:44:30;;;;;;;10.98;8.15;;;;;;;27.08;54.28;94994.13;5024632;28;20005;-53
2022/07/25 01:46:55;;;;;;;11.23;8.50;;;;;;;27.08;54.31;94996.13;5006355;28;20018;-53
2022/07/25 01:49:20;;;;;;;11.10;8.60;;;;;;;27.10;54.26;94993.59;5024673;28;20033;-51
2022/07/25 01:51:46;;;;;;;10.10;8.50;;;;;;;27.07;54.51;94989.94;5023895;28;20412;-55
2022/07/25 01:54:11;;;;;;;9.93;8.50;;;;;;;27.02;54.72;94993.53;5024280;28;20393;-51
2022/07/25 01:56:42;;;;;;;11.50;9.00;;;;;;;27.02;54.83;94993.53;5024832;28;20037;-54
2022/07/25 01:59:07;;;;;;;11.20;9.25;;;;;;;26.99;54.19;94994.59;5024211;28;20053;-54
2022/07/25 02:01:33;;;;;;;10.75;8.63;;;;;;;27.02;54.16;94999.00;5023819;28;20033;-53
2022/07/25 02:03:58;;;;;;;8.88;7.80;;;;;;;27.03;54.01;95000.47;5024020;28;20037;-52
2022/07/25 02:06:24;;;;;;;9.88;7.93;;;;;;;27.03;54.44;95000.47;5023367;28;20095;-53
2022/07/25 02:08:49;;;;;;;9.32;8.38;;;;;;;27.02;54.83;94999.00;5025188;28;20025;-52
2022/07/25 02:11:14;;;;;;;10.05;7.88;;;;;;;27.01;54.96;94996.78;5024396;28;20567;-55
2022/07/25 02:13:40;;;;;;;10.05;8.52;;;;;;;26.99;54.52;94989.09;5024064;28;20088;-53
2022/07/25 02:16:05;;;;;;;10.60;8.52;;;;;;;26.98;54.76;94986.91;5023572;28;20080;-54
2022/07/25 02:18:31;;;;;;;10.20;8.85;;;;;;;26.97;55.24;94994.38;5023964;28;20030;-52
2022/07/25 02:20:56;;;;;;;12.10;8.77;;;;;;;26.95;55.15;94999.69;5024169;28;20022;-51
2022/07/25 02:23:22;;;;;;;8.98;8.07;;;;;;;26.95;54.58;94994.19;5025286;28;20030;-50
2022/07/25 02:25:47;;;;;;;9.38;8.35;;;;;;;26.96;54.47;95001.13;5027710;28;20358;-52
2022/07/25 02:28:12;;;;;;;9.40;8.10;;;;;;;26.93;54.54;94996.72;5034138;28;20033;-55
2022/07/25 02:30:38;;;;;;;9.40;8.40;;;;;;;26.94;54.41;94998.19;5034350;28;20048;-53
2022/07/25 02:33:03;;;;;;;10.25;8.32;;;;;;;26.93;54.70;95002.19;5025267;28;20029;-54
2022/07/25 02:35:29;;;;;;;10.95;8.93;;;;;;;26.89;54.37;94996.31;5006105;28;20037;-54
2022/07/25 02:37:54;;;;;;;9.63;7.95;;;;;;;26.89;54.26;95001.06;5023616;28;20040;-50
2022/07/25 02:40:20;;;;;;;9.35;8.35;;;;;;;26.89;54.03;94996.31;5024193;28;20416;-53
2022/07/25 02:42:45;;;;;;;8.95;8.05;;;;;;;26.87;54.20;94987.84;5024335;28;20029;-54
2022/07/25 02:45:11;;;;;;;9.15;7.78;;;;;;;26.86;53.79;94986.41;5033277;28;20501;-52
2022/07/25 02:47:36;;;;;;;9.63;7.63;;;;;;;26.85;53.63;94984.91;5033316;28;20025;-53
2022/07/25 02:50:03;;;;;;;9.38;8.13;;;;;;;26.84;54.06;94986.19;5029266;28;20095;-54
2022/07/25 02:52:29;;;;;;;8.70;7.80;;;;;;;26.85;53.54;94987.66;5023339;28;20048;-53
2022/07/25 02:54:54;;;;;;;9.32;8.15;;;;;;;26.84;53.55;94986.19;5023823;28;20033;-51
2022/07/25 02:57:19;;;;;;;10.18;8.25;;;;;;;26.83;53.39;94990.22;5023608;28;20038;-52
2022/07/25 02:59:45;;;;;;;10.30;8.05;;;;;;;26.84;53.61;94999.88;5023969;28;20068;-50
2022/07/25 03:02:10;;;;;;;10.35;8.45;;;;;;;26.80;53.70;95002.22;5021236;28;20527;-54
2022/07/25 03:04:36;;;;;;;9.35;8.23;;;;;;;26.84;53.34;94994.41;5023347;28;20455;-52
2022/07/25 03:07:01;;;;;;;9.45;7.68;;;;;;;26.79;53.61;94989.78;5022524;28;20440;-53
2022/07/25 03:09:27;;;;;;;8.52;7.65;;;;;;;26.80;53.25;94996.75;5023498;28;20018;-53
2022/07/25 03:11:52;;;;;;;9.93;7.35;;;;;;;26.80;53.23;94991.28;5021943;28;20420;-54
2022/07/25 03:14:18;;;;;;;9.10;7.82;;;;;;;26.81;52.89;94989.97;5022858;28;20021;-57
2022/07/25 03:16:43;;;;;;;11.60;8.18;;;;;;;26.82;52.40;95007.19;5004818;28;20026;-54
2022/07/25 03:19:10;;;;;;;9.70;7.72;;;;;;;26.81;52.56;95006.41;5023755;28;20021;-52
2022/07/25 03:21:36;;;;;;;9.50;8.02;;;;;;;26.81;52.37;95005.69;5022319;28;20029;-56
2022/07/25 03:24:02;;;;;;;8.85;7.43;;;;;;;26.79;52.26;95003.50;5022875;28;20029;-50
2022/07/25 03:26:27;;;;;;;10.85;7.68;;;;;;;26.79;52.37;95008.97;5022428;28;20037;-52
2022/07/25 03:28:53;;;;;;;10.57;7.68;;;;;;;26.80;52.17;95015.19;5021206;28;20579;-51
2022/07/25 03:31:18;;;;;;;11.85;8.13;;;;;;;26.79;51.63;95003.50;5022895;28;20353;-52
2022/07/25 03:33:44;;;;;;;9.23;7.70;;;;;;;26.80;51.67;95004.97;5022451;28;20026;-51
2022/07/25 03:36:10;;;;;;;9.52;8.10;;;;;;;26.79;52.09;95000.03;5022298;28;20500;-52
2022/07/25 03:38:36;;;;;;;10.23;7.45;;;;;;;26.80;51.68;95004.97;5022403;28;20075;-55
2022/07/25 03:41:01;;;;;;;9.35;7.30;;;;;;;26.83;51.51;95009.38;5022240;28;20055;-52
2022/07/25 03:43:27;;;;;;;11.10;7.40;;;;;;;26.80;51.13;95004.97;5022230;28;20024;-51
2022/07/25 03:45:52;;;;;;;11.40;7.43;;;;;;;26.80;51.00;95004.97;5022564;28;20033;-50
2022/07/25 03:48:18;;;;;;;10.85;8.20;;;;;;;26.81;51.10;95006.41;5022155;28;20026;-51
2022/07/25 03:50:43;;;;;;;8.73;7.30;;;;;;;26.75;51.04;95002.34;5020523;28;20026;-51
2022/07/25 03:53:08;;;;;;;12.02;7.65;;;;;;;26.77;51.05;95006.03;5022007;28;20026;-50
2022/07/25 03:55:34;;;;;;;13.52;7.95;;;;;;;26.76;50.77;95014.06;5025565;28;20044;-53
2022/07/25 03:57:59;;;;;;;11.95;7.47;;;;;;;26.72;51.16;95008.16;5026483;28;20226;-53
2022/07/25 04:00:25;;;;;;;9.23;7.50;;;;;;;26.73;50.57;95010.38;5026672;28;20115;-53
2022/07/25 04:02:50;;;;;;;9.75;7.68;;;;;;;26.75;49.83;95015.31;5025388;28;20775;-55
2022/07/25 04:05:16;;;;;;;10.98;7.35;;;;;;;26.75;50.72;95018.78;5026486;28;20017;-53
2022/07/25 04:07:41;;;;;;;10.80;6.78;;;;;;;26.73;50.27;95009.63;5025268;28;20021;-54
2022/07/25 04:10:07;;;;;;;10.23;6.50;;;;;;;26.69;50.00;95011.97;5025449;28;20492;-52
2022/07/25 04:12:33;;;;;;;9.98;7.22;;;;;;;26.63;49.77;95022.31;5024845;28;20040;-56
2022/07/25 04:14:58;;;;;;;8.68;6.65;;;;;;;26.62;50.16;95015.34;5024518;28;20017;-54
2022/07/25 04:17:24;;;;;;;9.57;6.82;;;;;;;26.63;49.93;95014.81;5024419;28;20021;-51
2022/07/25 04:19:50;;;;;;;10.13;6.45;;;;;;;26.65;49.51;95014.28;5022709;28;20030;-53
2022/07/25 04:22:15;;;;;;;8.48;6.90;;;;;;;26.62;50.08;95009.88;5022030;28;20504;-56
2022/07/25 04:24:40;;;;;;;8.35;6.72;;;;;;;26.59;49.51;95008.19;5022432;28;20606;-54
2022/07/25 04:27:06;;;;;;;9.60;6.80;;;;;;;26.53;49.58;95002.84;5024482;28;20045;-55
2022/07/25 04:29:31;;;;;;;11.00;7.32;;;;;;;26.49;49.62;94996.94;5022470;28;20017;-57
2022/07/25 04:31:57;;;;;;;9.23;6.60;;;;;;;26.56;49.47;95011.97;5021615;28;20041;-58
2022/07/25 04:34:22;;;;;;;8.05;6.55;;;;;;;26.68;49.93;95007.75;5024358;28;20005;-54
2022/07/25 04:36:48;;;;;;;10.05;6.85;;;;;;;26.74;48.92;95005.63;5027245;28;20033;-55
2022/07/25 04:39:14;;;;;;;11.10;6.82;;;;;;;26.76;48.99;95007.28;5021750;28;20033;-54
2022/07/25 04:41:39;;;;;;;10.75;6.80;;;;;;;26.82;48.71;94999.69;5020970;28;20094;-54
2022/07/25 04:44:06;;;;;;;8.50;6.50;;;;;;;26.89;48.42;95004.53;5015343;28;20029;-58
2022/07/25 04:46:32;;;;;;;8.75;6.97;;;;;;;26.90;48.14;95003.25;5000437;28;20021;-56
2022/07/25 04:48:57;;;;;;;9.23;6.90;;;;;;;27.03;47.99;95010.72;5020521;28;20041;-55
2022/07/25 04:51:23;;;;;;;7.90;6.63;;;;;;;27.15;47.92;95007.19;5021093;28;20025;-55
2022/07/25 04:53:48;;;;;;;9.30;6.32;;;;;;;27.29;47.39;95000.34;5021845;28;20048;-57
2022/07/25 04:56:14;;;;;;;7.53;6.45;;;;;;;27.37;47.66;95006.66;5021285;28;20033;-55
2022/07/25 04:58:39;;;;;;;7.70;6.25;;;;;;;27.48;46.90;95011.88;5021480;28;20056;-54
2022/07/25 05:01:06;;;;;;;8.15;6.25;;;;;;;27.60;47.00;95007.59;5018879;28;20504;-58
2022/07/25 05:03:31;;;;;;;9.10;7.00;;;;;;;27.73;46.29;95000.03;5020908;28;20099;-54
2022/07/25 05:05:57;;;;;;;9.68;6.85;;;;;;;27.94;46.65;95004.19;5021170;28;20045;-58
2022/07/25 05:08:22;;;;;;;11.93;6.63;;;;;;;28.05;45.97;95003.16;5021335;28;20504;-54
2022/07/25 05:10:48;;;;;;;8.60;6.25;;;;;;;28.18;45.60;95012.06;5023818;28;20608;-54
2022/07/25 05:13:13;;;;;;;9.00;6.15;;;;;;;28.31;45.75;95009.19;5033168;28;20080;-55
2022/07/25 05:15:38;;;;;;;9.35;6.57;;;;;;;28.46;44.88;95009.25;5025386;28;20026;-55
2022/07/25 05:18:04;;;;;;;8.95;6.53;;;;;;;28.55;44.65;95016.97;5026923;28;20029;-57
2022/07/25 05:20:30;;;;;;;8.35;6.30;;;;;;;28.74;44.93;95010.69;5025193;28;20032;-55
2022/07/25 05:22:55;;;;;;;10.18;6.05;;;;;;;28.84;44.18;95011.63;5024152;28;20049;-55
2022/07/25 05:25:21;;;;;;;6.93;5.63;;;;;;;29.00;43.99;95018.66;5024979;28;20056;-56
2022/07/25 05:27:46;;;;;;;8.00;5.90;;;;;;;29.06;43.98;95021.97;5023579;28;20040;-54
2022/07/25 05:30:13;;;;;;;8.63;6.40;;;;;;;29.14;44.94;95017.22;5024291;28;20441;-55
2022/07/25 05:32:38;;;;;;;7.90;6.03;;;;;;;29.21;43.69;95011.00;5023372;28;20037;-53
2022/07/25 05:35:05;;;;;;;7.15;6.25;;;;;;;29.24;43.30;95012.69;5006438;28;20025;-57
2022/07/25 05:37:30;;;;;;;10.05;5.72;;;;;;;29.37;43.49;95010.50;5006091;28;20105;-61
2022/07/25 05:39:56;;;;;;;6.93;6.00;;;;;;;29.46;43.73;95009.19;5024478;28;20025;-57
2022/07/25 05:42:21;;;;;;;7.35;5.82;;;;;;;29.55;43.68;95011.41;5021058;28;20030;-51
2022/07/25 05:47:48;;;;;;;7.47;6.13;;;;;;;29.66;43.62;95005.56;4972675;22;20077;-80
2022/07/25 05:50:14;;;;;;;7.55;5.85;;;;;;;29.75;43.09;95009.19;5006623;23;20137;-55
2022/07/25 05:52:39;;;;;;;8.10;5.88;;;;;;;29.76;42.33;95004.41;5003615;28;20018;-55
2022/07/25 05:55:05;;;;;;;8.13;5.95;;;;;;;29.71;42.28;95011.59;5000274;28;20656;-56
2022/07/25 05:57:30;;;;;;;8.98;6.40;;;;;;;29.55;42.15;94994.88;5005622;28;20022;-57
2022/07/25 05:59:56;;;;;;;7.25;6.03;;;;;;;29.60;41.96;95005.00;5005952;28;20030;-55
2022/07/25 06:02:22;;;;;;;8.05;5.72;;;;;;;29.52;42.15;95004.25;5004101;28;20033;-55
2022/07/25 06:04:47;;;;;;;18.38;7.53;;;;;;;29.51;42.14;94992.50;5002589;28;20041;-56
2022/07/25 06:07:13;;;;;;;8.38;5.75;;;;;;;29.54;42.65;94993.44;4982971;28;20100;-56
2022/07/25 06:09:38;;;;;;;8.18;5.60;;;;;;;29.55;41.82;95001.16;4984302;28;20037;-53
2022/07/25 06:12:04;;;;;;;8.32;6.05;;;;;;;29.54;42.35;95004.44;4984288;28;20037;-53
2022/07/25 06:14:30;;;;;;;6.95;5.97;;;;;;;29.59;41.76;94995.28;5000223;28;20551;-54
2022/07/25 06:16:55;;;;;;;10.50;6.47;;;;;;;29.58;42.79;94989.03;4984272;28;20113;-55
2022/07/25 06:19:21;;;;;;;11.15;6.40;;;;;;;29.61;42.39;94992.69;4987892;28;20030;-53
2022/07/25 06:21:46;;;;;;;10.23;6.72;;;;;;;29.63;42.82;94995.66;5000707;28;20022;-52
2022/07/25 06:24:12;;;;;;;9.00;6.38;;;;;;;29.66;42.15;95005.56;4992528;28;20046;-56
2022/07/25 06:26:37;;;;;;;9.18;6.28;;;;;;;29.67;41.89;94996.75;4999955;28;20030;-54
2022/07/25 06:29:03;;;;;;;7.40;6.10;;;;;;;29.77;42.40;94995.59;4989928;28;20053;-53
2022/07/25 06:31:28;;;;;;;8.75;5.80;;;;;;;29.77;42.33;94983.88;4990715;28;20036;-55
2022/07/25 06:33:54;;;;;;;7.05;5.43;;;;;;;29.85;43.33;94996.38;5003824;28;20026;-52
2022/07/25 06:36:19;;;;;;;9.02;5.82;;;;;;;29.89;41.60;94991.22;4996102;28;20030;-52
2022/07/25 06:38:45;;;;;;;8.13;6.20;;;;;;;29.95;41.50;94986.25;5003865;28;20033;-51
2022/07/25 06:41:14;;;;;;;8.45;6.00;;;;;;;29.91;41.59;94988.66;5002151;28;20433;-54
2022/07/25 06:43:39;;;;;;;7.68;6.25;;;;;;;30.01;42.02;94986.06;5003065;28;20092;-56
2022/07/25 06:46:05;;;;;;;10.30;6.30;;;;;;;30.04;42.07;94991.19;5002048;28;20037;-51
2022/07/25 06:48:31;;;;;;;10.68;6.32;;;;;;;30.09;41.64;94987.53;5004357;28;20048;-54
2022/07/25 06:50:56;;;;;;;8.70;6.10;;;;;;;30.13;41.42;94982.38;5022362;28;20037;-54
2022/07/25 06:53:21;;;;;;;7.20;6.03;;;;;;;30.17;41.67;94982.72;5018802;28;20025;-52
2022/07/25 06:55:47;;;;;;;8.52;6.53;;;;;;;30.23;41.83;94975.00;5019510;28;20611;-55
2022/07/25 06:58:13;;;;;;;8.23;6.68;;;;;;;30.24;41.62;94973.72;5022629;28;20025;-53
2022/07/25 07:00:38;;;;;;;7.00;5.72;;;;;;;30.36;41.30;94981.06;5015241;28;20030;-53
2022/07/25 07:03:04;;;;;;;8.13;5.68;;;;;;;30.38;41.46;94986.00;5010603;28;20539;-54
2022/07/25 07:05:31;;;;;;;8.73;6.05;;;;;;;30.47;41.36;94982.66;5022522;28;20037;-52
2022/07/25 07:07:57;;;;;;;8.80;6.25;;;;;;;30.46;40.94;94975.69;5015226;28;20033;-51
2022/07/25 07:10:23;;;;;;;9.13;6.30;;;;;;;30.48;41.27;94979.34;5002528;28;20034;-51
2022/07/25 07:12:48;;;;;;;7.93;6.30;;;;;;;30.48;40.92;94973.09;4985548;28;20021;-54
2022/07/25 07:15:14;;;;;;;6.78;5.72;;;;;;;30.54;41.61;94973.63;5019420;28;20036;-53
2022/07/25 07:17:40;;;;;;;7.65;5.97;;;;;;;30.56;41.12;94982.09;5017142;28;20822;-51
2022/07/25 07:20:06;;;;;;;7.13;6.10;;;;;;;30.60;41.08;94974.91;5022211;28;20109;-52
2022/07/25 07:22:31;;;;;;;7.65;5.75;;;;;;;30.64;41.14;94975.22;5021768;28;20047;-52
2022/07/25 07:24:57;;;;;;;9.07;6.10;;;;;;;30.66;41.07;94967.88;5022497;28;20033;-53
2022/07/25 07:27:23;;;;;;;7.47;5.90;;;;;;;30.68;40.35;94968.03;5016490;28;20060;-54
2022/07/25 07:29:49;;;;;;;7.82;5.78;;;;;;;30.72;40.79;94971.16;5010072;28;20087;-57
2022/07/25 07:32:14;;;;;;;7.55;6.22;;;;;;;30.75;41.06;94964.53;5005201;28;20076;-55
2022/07/25 07:34:40;;;;;;;8.55;6.38;;;;;;;30.68;40.98;94959.03;5002849;28;20041;-54
2022/07/25 07:37:05;;;;;;;7.50;6.30;;;;;;;30.65;41.16;94977.44;5002596;28;20041;-55
2022/07/25 07:39:31;;;;;;;6.75;6.05;;;;;;;30.63;41.14;94956.47;5003182;28;20587;-52
2022/07/25 07:41:56;;;;;;;6.88;6.10;;;;;;;30.53;41.17;94969.41;5002375;28;20029;-56
2022/07/25 07:44:22;;;;;;;8.63;6.25;;;;;;;30.48;41.23;94967.56;5001686;28;20062;-54
2022/07/25 07:46:47;;;;;;;7.30;6.32;;;;;;;30.38;41.84;94958.44;5002525;28;20095;-52
2022/07/25 07:49:13;;;;;;;8.27;6.72;;;;;;;30.30;41.50;94957.72;5002959;28;20517;-54
2022/07/25 07:51:38;;;;;;;6.60;5.78;;;;;;;30.20;41.68;94959.56;5002344;28;20512;-53
2022/07/25 07:56:48;;;;;;;8.48;6.00;;;;;;;30.09;41.78;94965.50;5003789;28;20125;-53
2022/07/25 07:59:14;;;;;;;6.50;5.82;;;;;;;30.03;41.95;94956.69;5002900;28;20692;-53
2022/07/25 08:01:40;;;;;;;8.80;6.00;;;;;;;29.94;42.40;94949.00;5002359;28;20139;-54
2022/07/25 08:04:05;;;;;;;9.82;6.72;;;;;;;29.89;42.39;94960.94;5002641;28;20053;-54
2022/07/25 08:06:31;;;;;;;7.25;5.63;;;;;;;29.82;42.60;94956.19;5001900;28;20770;-53
2022/07/25 08:08:56;;;;;;;7.60;5.93;;;;;;;29.77;42.55;94962.56;5002591;28;20033;-51
2022/07/25 08:11:21;;;;;;;8.10;5.65;;;;;;;29.71;42.54;94970.28;5001838;28;20018;-53
2022/07/25 08:13:47;;;;;;;7.90;6.05;;;;;;;29.64;43.04;94964.81;5002420;28;20030;-51
2022/07/25 08:16:12;;;;;;;6.63;6.03;;;;;;;29.58;42.82;94956.00;5001985;28;20088;-54
2022/07/25 08:18:38;;;;;;;7.10;6.30;;;;;;;29.53;43.07;94958.94;5002410;28;20072;-53
2022/07/25 08:21:05;;;;;;;7.72;6.07;;;;;;;29.50;43.26;94960.03;4984476;28;20419;-53
2022/07/25 08:23:33;;;;;;;6.88;5.82;;;;;;;29.44;42.94;94953.97;4984685;28;20037;-53
2022/07/25 08:25:59;;;;;;;8.98;6.53;;;;;;;29.38;43.49;94956.91;4997656;28;20050;-51
2022/07/25 08:28:25;;;;;;;6.40;5.80;;;;;;;29.35;43.52;94960.75;4999406;28;20030;-53
2022/07/25 08:30:50;;;;;;;7.63;5.75;;;;;;;29.28;43.26;94960.75;4984667;28;20479;-53
2022/07/25 08:33:16;;;;;;;6.45;5.78;;;;;;;29.26;43.40;94955.06;5001775;28;20040;-53
2022/07/25 08:36:09;;;;;;;7.05;6.35;;;;;;;29.25;43.37;94961.84;4984729;28;20030;-53
2022/07/25 08:38:35;;;;;;;7.47;6.20;;;;;;;29.18;43.44;94962.56;4999216;28;20038;-53
2022/07/25 08:41:01;;;;;;;8.65;6.38;;;;;;;29.15;43.51;94954.66;5002171;28;20038;-54
2022/07/25 08:43:28;;;;;;;9.25;5.93;;;;;;;29.09;43.86;94956.84;4965109;28;20539;-52
2022/07/25 08:45:53;;;;;;;6.72;5.82;;;;;;;29.07;44.10;94957.41;4968650;28;20077;-53
2022/07/25 08:48:21;;;;;;;6.22;5.57;;;;;;;29.05;43.64;94954.47;5003368;28;20029;-52
2022/07/25 08:50:46;;;;;;;8.40;6.20;;;;;;;29.03;43.55;94962.56;4987836;28;20042;-52
2022/07/25 08:53:13;;;;;;;7.10;5.85;;;;;;;29.01;43.77;94953.38;5005842;28;20349;-52
2022/07/25 08:55:38;;;;;;;6.50;5.82;;;;;;;28.98;43.77;94946.94;4988043;28;20061;-52
2022/07/25 08:58:03;;;;;;;7.35;6.18;;;;;;;28.98;43.87;94944.19;5005268;28;20519;-52
2022/07/25 09:00:29;;;;;;;8.45;6.25;;;;;;;28.94;43.80;94943.13;5004135;28;20018;-54
2022/07/25 09:02:57;;;;;;;8.48;6.18;;;;;;;28.93;43.35;94958.84;4995102;28;20538;-53
2022/07/25 09:05:23;;;;;;;6.80;5.72;;;;;;;28.94;43.80;94943.84;5021398;28;20041;-55
2022/07/25 09:07:49;;;;;;;7.75;6.78;;;;;;;28.92;44.15;94953.91;5020314;28;20030;-55
2022/07/25 09:10:17;;;;;;;6.95;5.78;;;;;;;28.91;43.59;94950.44;5025148;28;20593;-54
2022/07/25 09:12:52;;;;;;;8.07;6.20;;;;;;;28.92;43.43;94943.66;5017792;28;20033;-54
2022/07/25 09:15:24;;;;;;;7.82;6.20;;;;;;;28.84;43.59;94929.16;5005375;28;20034;-52
2022/07/25 09:17:52;;;;;;;7.72;6.68;;;;;;;28.97;42.86;94937.25;5004921;28;20525;-55
2022/07/25 09:20:18;;;;;;;7.35;6.38;;;;;;;29.03;42.81;94934.31;5005652;28;20080;-52
2022/07/25 09:22:44;;;;;;;8.27;6.35;;;;;;;29.10;42.06;94928.09;5004141;28;20053;-51
2022/07/25 09:25:28;;;;;;;10.10;6.25;;;;;;;29.20;42.24;94921.50;5020967;28;20052;-53
2022/07/25 09:27:54;;;;;;;7.28;6.00;;;;;;;29.28;42.37;94925.75;5024219;28;20501;-51
2022/07/25 09:30:19;;;;;;;6.95;6.13;;;;;;;29.38;42.46;94925.91;5024649;28;20109;-51
2022/07/25 09:32:45;;;;;;;7.30;6.05;;;;;;;29.50;41.74;94921.50;5020789;28;20037;-55
2022/07/25 09:35:11;;;;;;;6.25;5.65;;;;;;;29.63;41.46;94913.06;5005092;28;20489;-56
2022/07/25 09:37:36;;;;;;;7.60;6.25;;;;;;;29.72;41.68;94927.72;5004440;28;20029;-52
2022/07/25 09:40:11;;;;;;;8.50;6.05;;;;;;;29.87;41.35;94932.50;5005098;28;20068;-53
2022/07/25 09:42:37;;;;;;;8.20;6.20;;;;;;;29.91;41.12;94925.31;5003900;28;20044;-51
2022/07/25 09:45:06;;;;;;;7.80;6.32;;;;;;;30.00;41.13;94924.75;5004357;28;20040;-52
2022/07/25 09:47:35;;;;;;;7.72;5.65;;;;;;;30.12;40.58;94923.06;5004562;28;20065;-52
2022/07/25 09:50:00;;;;;;;7.80;6.70;;;;;;;30.24;40.72;94910.34;5004635;28;20077;-53
2022/07/25 09:52:25;;;;;;;7.25;6.00;;;;;;;30.29;40.22;94917.66;5004654;28;20085;-52
2022/07/25 09:54:51;;;;;;;7.60;6.57;;;;;;;30.36;39.93;94916.94;5011695;28;20026;-51
2022/07/25 09:57:16;;;;;;;10.27;6.15;;;;;;;30.46;39.71;94915.03;5011346;28;20022;-51
2022/07/25 09:59:43;;;;;;;8.07;6.55;;;;;;;30.49;39.58;94919.44;5003357;28;20033;-54
2022/07/25 10:02:18;;;;;;;7.55;6.32;;;;;;;30.60;39.47;94913.50;5004229;28;20026;-53
2022/07/25 10:05:14;;;;;;;7.15;6.43;;;;;;;30.70;39.83;94917.84;5002584;28;20036;-51
2022/07/25 10:07:45;;;;;;;10.10;6.50;;;;;;;30.75;39.33;94914.16;5005242;28;20052;-52
2022/07/25 10:10:20;;;;;;;7.90;6.60;;;;;;;30.83;39.06;94899.00;4989556;28;20030;-51
2022/07/25 10:13:09;;;;;;;8.13;5.88;;;;;;;30.90;38.87;94906.53;5018027;28;20026;-53
2022/07/25 10:15:47;;;;;;;6.57;5.90;;;;;;;30.96;38.86;94901.53;5023584;28;20405;-53
2022/07/25 10:18:13;;;;;;;9.00;5.90;;;;;;;30.95;38.14;94900.06;5018624;28;20037;-53
2022/07/25 10:20:38;;;;;;;9.57;6.07;;;;;;;30.98;38.21;94898.94;5013266;28;20014;-54
2022/07/25 10:23:04;;;;;;;8.85;6.30;;;;;;;31.06;38.48;94894.13;5004113;28;20771;-53
2022/07/25 10:25:29;;;;;;;8.15;6.05;;;;;;;30.99;37.35;94894.91;5017723;28;20500;-53
2022/07/25 10:28:01;;;;;;;7.43;5.80;;;;;;;30.67;38.34;94886.63;5009251;28;20030;-51
2022/07/25 10:30:37;;;;;;;6.80;5.85;;;;;;;30.53;39.08;94900.50;4985890;28;20732;-51
2022/07/25 10:33:14;;;;;;;6.53;5.78;;;;;;;30.30;39.33;94888.81;5001736;28;20685;-52
2022/07/25 10:35:40;;;;;;;7.13;6.35;;;;;;;30.00;40.06;94885.44;5002251;28;20030;-53
2022/07/25 10:38:06;;;;;;;6.82;5.90;;;;;;;29.81;40.32;94885.88;5002160;28;20390;-52
2022/07/25 10:40:40;;;;;;;6.43;5.55;;;;;;;29.69;40.38;94887.53;4994423;28;20021;-51
2022/07/25 10:43:18;;;;;;;7.32;5.88;;;;;;;29.51;41.04;94887.22;5007540;28;20042;-53
2022/07/25 10:45:53;;;;;;;8.07;6.90;;;;;;;29.31;41.83;94882.63;5018785;28;20547;-53
2022/07/25 10:48:24;;;;;;;6.40;5.53;;;;;;;29.09;41.78;94883.34;5021304;28;20044;-56
2022/07/25 10:50:51;;;;;;;7.15;5.82;;;;;;;28.90;42.17;94877.47;5021107;28;20091;-54
2022/07/25 10:53:49;;;;;;;7.00;5.60;;;;;;;28.71;42.94;94875.63;5018581;28;20049;-50
2022/07/25 10:56:19;;;;;;;8.60;6.28;;;;;;;28.47;42.98;94873.34;5016357;28;20048;-53
2022/07/25 10:58:45;;;;;;;;;;;;;;;28.41;43.63;94870.03;5009689;28;20049;-50
2022/07/25 11:01:13;;;;;;;6.72;5.20;;;;;;;28.17;43.72;94870.50;4999319;28;19917;-54
2022/07/25 11:03:40;;;;;;;7.75;5.40;;;;;;;28.16;44.13;94871.81;4984007;28;20045;-53
2022/07/25 11:06:05;;;;;;;7.38;5.80;;;;;;;28.03;44.29;94869.16;5001858;28;20029;-54
2022/07/25 11:08:32;;;;;;;6.53;5.63;;;;;;;27.89;43.98;94870.56;5001730;28;20422;-51
2022/07/25 11:10:57;;;;;;;6.53;5.57;;;;;;;27.77;44.11;94869.41;5001052;28;20026;-51
2022/07/25 11:13:23;;;;;;;6.13;5.13;;;;;;;27.64;44.90;94865.28;5000958;28;20053;-54
2022/07/25 11:15:48;;;;;;;5.93;5.32;;;;;;;27.55;44.65;94854.81;4983829;28;20068;-49
2022/07/25 11:18:14;;;;;;;5.97;5.13;;;;;;;27.47;45.29;94851.28;4984149;28;20674;-53
2022/07/25 11:20:39;;;;;;;6.88;5.28;;;;;;;27.39;45.13;94853.25;5003707;28;20033;-54
2022/07/25 11:23:05;;;;;;;6.78;5.20;;;;;;;27.30;45.84;94848.25;4997927;28;20037;-53
2022/07/25 11:25:31;;;;;;;5.70;5.13;;;;;;;27.26;46.04;94856.09;5001575;28;20068;-52
2022/07/25 11:27:57;;;;;;;5.32;4.80;;;;;;;27.24;45.65;94839.44;5001409;28;20099;-52
2022/07/25 11:30:23;;;;;;;6.13;4.90;;;;;;;27.16;45.67;94846.88;4984297;28;20018;-54
2022/07/25 11:32:53;;;;;;;7.00;5.30;;;;;;;27.11;45.68;94847.75;4983295;28;20029;-53